Colorado Springs, CO

10:17 PM MDT on May 22, 2015 (GMT -0600)
Old North End | | Change Station
CLOSE
Current Station
Personal Weather Station
Location: Colorado Springs, CO
Elevation: 6086 ft
Nearby Weather Stations

Elev 6086 ft 38.85 °N, 104.82 °W | Updated 48 seconds ago

Overcast
Overcast
51.1 °F
Feels Like 51.1 °F
N
0.0
Wind Variable Wind from WSW
Gusts 0.0 mph

Today
High -- | Low -- °F
--% Chance of Precip.
Yesterday
High -- | Low -- °F
Precip. -- in
5:41 AM 8:10 PM
Waxing Crescent, 26% visible
Pressure 29.94 in
Visibility 10.0 miles
Clouds Scattered Clouds 6500 ft
Scattered Clouds 9000 ft
Scattered Clouds 16000 ft
Dew Point 46 °F
Humidity 84%
Rainfall 0.20 in
Snow Depth Not available.
UV 0 out of 12
Pollen 4.90 out of 12
Air Quality Not available.
Flu Activity Sporadic
METAR KCOS 230354Z 35010KT 10SM SCT065 SCT090 SCT160 10/07 A3003 RMK AO2 SLP138 OCNL LTICCG DSNT NW CB DSNT NW MOV NE T01000067

More Conditions Fewer Conditions

Pressure 29.94 in
Visibility 10.0 miles
Clouds Scattered Clouds 6500 ft
Scattered Clouds 9000 ft
Scattered Clouds 16000 ft
Dew Point 46 °F
Humidity 84%
Rainfall 0.20 in
Snow Depth Not available.
UV 0 out of 12
Pollen 4.90 out of 12
Air Quality Not available.
Flu Activity Sporadic
METAR KCOS 230354Z 35010KT 10SM SCT065 SCT090 SCT160 10/07 A3003 RMK AO2 SLP138 OCNL LTICCG DSNT NW CB DSNT NW MOV NE T01000067

More Conditions Fewer Conditions

10-Day Weather Forecast

Almanac

Astronomy

May. 22, 2015 Rise Set
Actual Time
Civil Twilight
Nautical Twilight
Astronomical Twilight
Moon
Length of Visible Light
Length of Day
Tomorrow will be .
, % of the Moon is Illuminated

Today's Extremes

State Highs State Lows

Community

WunderPhotos

Upload Photos

1,823,392 photos uploaded!

WunderBlogs® & News

Nearby

Air Quality

  Air Quality AQ Index Pollutant
Not available.

Snow Depth

Station Depth Elevation

Earthquake Activity

City Distance Mag. Time & Date
Minimum magnitude displayed is 2.5.

Coastal Water Temperatures

Place Temperature

Stations

Nearby Weather Stations

Station Location Temp. Windchill Dew Point Humidity Wind Precip. Elev Updated Type